sensor_id;sensor_type;location;lat;lon;timestamp;P1;durP1;ratioP1;P2;durP2;ratioP2
7233;SDS011;3658;47.992;10.158;2022-11-06T00:00:52;6.03;;;4.07;;
7233;SDS011;3658;47.992;10.158;2022-11-06T00:03:19;4.97;;;4.33;;
7233;SDS011;3658;47.992;10.158;2022-11-06T00:05:45;6.80;;;4.50;;
7233;SDS011;3658;47.992;10.158;2022-11-06T00:08:30;5.17;;;3.80;;
7233;SDS011;3658;47.992;10.158;2022-11-06T00:11:00;5.53;;;4.17;;
7233;SDS011;3658;47.992;10.158;2022-11-06T00:13:32;5.17;;;4.20;;
7233;SDS011;3658;47.992;10.158;2022-11-06T00:16:01;4.67;;;3.97;;
7233;SDS011;3658;47.992;10.158;2022-11-06T00:18:28;6.37;;;4.17;;
7233;SDS011;3658;47.992;10.158;2022-11-06T00:20:55;4.73;;;3.90;;
7233;SDS011;3658;47.992;10.158;2022-11-06T00:23:22;5.60;;;3.27;;
7233;SDS011;3658;47.992;10.158;2022-11-06T00:25:49;4.63;;;3.37;;
7233;SDS011;3658;47.992;10.158;2022-11-06T00:28:21;4.03;;;3.63;;
7233;SDS011;3658;47.992;10.158;2022-11-06T00:30:48;4.53;;;3.70;;
7233;SDS011;3658;47.992;10.158;2022-11-06T00:33:15;5.30;;;3.73;;
7233;SDS011;3658;47.992;10.158;2022-11-06T00:35:42;4.07;;;3.43;;
7233;SDS011;3658;47.992;10.158;2022-11-06T00:38:09;3.83;;;3.40;;
7233;SDS011;3658;47.992;10.158;2022-11-06T00:40:36;4.13;;;3.53;;
7233;SDS011;3658;47.992;10.158;2022-11-06T00:43:03;3.93;;;3.40;;
7233;SDS011;3658;47.992;10.158;2022-11-06T00:45:31;4.30;;;3.40;;
7233;SDS011;3658;47.992;10.158;2022-11-06T00:47:58;3.63;;;3.20;;
7233;SDS011;3658;47.992;10.158;2022-11-06T00:50:25;3.83;;;3.40;;
7233;SDS011;3658;47.992;10.158;2022-11-06T00:52:53;3.73;;;2.60;;
7233;SDS011;3658;47.992;10.158;2022-11-06T00:55:20;3.40;;;2.83;;
7233;SDS011;3658;47.992;10.158;2022-11-06T00:57:47;4.10;;;3.30;;
7233;SDS011;3658;47.992;10.158;2022-11-06T01:00:15;3.93;;;3.10;;
7233;SDS011;3658;47.992;10.158;2022-11-06T01:02:45;3.70;;;2.80;;
7233;SDS011;3658;47.992;10.158;2022-11-06T01:05:12;3.50;;;2.87;;
7233;SDS011;3658;47.992;10.158;2022-11-06T01:07:40;3.17;;;2.80;;
7233;SDS011;3658;47.992;10.158;2022-11-06T01:10:07;3.20;;;2.83;;
7233;SDS011;3658;47.992;10.158;2022-11-06T01:12:34;3.67;;;2.73;;
7233;SDS011;3658;47.992;10.158;2022-11-06T01:15:01;2.97;;;2.40;;
7233;SDS011;3658;47.992;10.158;2022-11-06T01:17:28;4.47;;;2.60;;
7233;SDS011;3658;47.992;10.158;2022-11-06T01:19:57;2.57;;;2.03;;
7233;SDS011;3658;47.992;10.158;2022-11-06T01:22:24;2.60;;;2.40;;
7233;SDS011;3658;47.992;10.158;2022-11-06T01:24:51;3.00;;;2.63;;
7233;SDS011;3658;47.992;10.158;2022-11-06T01:27:17;3.60;;;2.83;;
7233;SDS011;3658;47.992;10.158;2022-11-06T01:29:44;2.50;;;2.30;;
7233;SDS011;3658;47.992;10.158;2022-11-06T01:32:11;2.63;;;2.37;;
7233;SDS011;3658;47.992;10.158;2022-11-06T01:34:38;2.63;;;2.40;;
7233;SDS011;3658;47.992;10.158;2022-11-06T01:37:06;2.73;;;2.47;;
7233;SDS011;3658;47.992;10.158;2022-11-06T01:39:33;2.27;;;2.07;;
7233;SDS011;3658;47.992;10.158;2022-11-06T01:42:00;2.30;;;2.10;;
7233;SDS011;3658;47.992;10.158;2022-11-06T01:47:31;2.50;;;2.30;;
7233;SDS011;3658;47.992;10.158;2022-11-06T01:49:59;2.33;;;2.13;;
7233;SDS011;3658;47.992;10.158;2022-11-06T01:52:30;2.20;;;2.00;;
7233;SDS011;3658;47.992;10.158;2022-11-06T01:55:01;2.27;;;2.07;;
7233;SDS011;3658;47.992;10.158;2022-11-06T01:57:34;2.47;;;2.23;;
7233;SDS011;3658;47.992;10.158;2022-11-06T02:00:02;2.10;;;1.90;;
7233;SDS011;3658;47.992;10.158;2022-11-06T02:02:31;1.90;;;1.80;;
7233;SDS011;3658;47.992;10.158;2022-11-06T02:04:58;2.10;;;1.90;;
7233;SDS011;3658;47.992;10.158;2022-11-06T02:07:25;2.30;;;1.90;;
7233;SDS011;3658;47.992;10.158;2022-11-06T02:09:53;2.23;;;1.93;;
7233;SDS011;3658;47.992;10.158;2022-11-06T02:12:27;2.30;;;2.10;;
7233;SDS011;3658;47.992;10.158;2022-11-06T02:15:11;2.33;;;2.13;;
7233;SDS011;3658;47.992;10.158;2022-11-06T02:17:49;1.90;;;1.80;;
7233;SDS011;3658;47.992;10.158;2022-11-06T02:20:23;2.20;;;2.00;;
7233;SDS011;3658;47.992;10.158;2022-11-06T02:23:04;2.20;;;1.97;;
7233;SDS011;3658;47.992;10.158;2022-11-06T02:26:00;2.23;;;2.00;;
7233;SDS011;3658;47.992;10.158;2022-11-06T02:28:36;2.23;;;2.03;;
7233;SDS011;3658;47.992;10.158;2022-11-06T02:31:07;2.30;;;2.10;;
7233;SDS011;3658;47.992;10.158;2022-11-06T02:33:39;2.37;;;1.93;;
7233;SDS011;3658;47.992;10.158;2022-11-06T02:36:11;2.10;;;1.90;;
7233;SDS011;3658;47.992;10.158;2022-11-06T02:38:42;1.67;;;1.57;;
7233;SDS011;3658;47.992;10.158;2022-11-06T02:41:15;1.90;;;1.80;;
7233;SDS011;3658;47.992;10.158;2022-11-06T02:43:47;2.10;;;1.90;;
7233;SDS011;3658;47.992;10.158;2022-11-06T02:46:19;1.70;;;1.60;;
7233;SDS011;3658;47.992;10.158;2022-11-06T02:48:50;2.00;;;1.80;;
7233;SDS011;3658;47.992;10.158;2022-11-06T02:51:23;1.70;;;1.60;;
7233;SDS011;3658;47.992;10.158;2022-11-06T02:53:53;2.47;;;1.80;;
7233;SDS011;3658;47.992;10.158;2022-11-06T02:56:26;1.70;;;1.60;;
7233;SDS011;3658;47.992;10.158;2022-11-06T02:58:56;1.73;;;1.63;;
7233;SDS011;3658;47.992;10.158;2022-11-06T03:01:28;1.90;;;1.70;;
7233;SDS011;3658;47.992;10.158;2022-11-06T03:03:59;1.80;;;1.70;;
7233;SDS011;3658;47.992;10.158;2022-11-06T03:06:31;1.70;;;1.60;;
7233;SDS011;3658;47.992;10.158;2022-11-06T03:09:02;1.60;;;1.50;;
7233;SDS011;3658;47.992;10.158;2022-11-06T03:11:33;1.63;;;1.53;;
7233;SDS011;3658;47.992;10.158;2022-11-06T03:14:05;1.70;;;1.60;;
7233;SDS011;3658;47.992;10.158;2022-11-06T03:16:39;1.80;;;1.60;;
7233;SDS011;3658;47.992;10.158;2022-11-06T03:19:17;1.70;;;1.60;;
7233;SDS011;3658;47.992;10.158;2022-11-06T03:21:52;1.93;;;1.60;;
7233;SDS011;3658;47.992;10.158;2022-11-06T03:24:24;1.73;;;1.63;;
7233;SDS011;3658;47.992;10.158;2022-11-06T03:26:55;1.57;;;1.47;;
7233;SDS011;3658;47.992;10.158;2022-11-06T03:29:31;1.50;;;1.40;;
7233;SDS011;3658;47.992;10.158;2022-11-06T03:32:04;1.60;;;1.50;;
7233;SDS011;3658;47.992;10.158;2022-11-06T03:34:37;1.57;;;1.47;;
7233;SDS011;3658;47.992;10.158;2022-11-06T03:37:10;1.70;;;1.60;;
7233;SDS011;3658;47.992;10.158;2022-11-06T03:39:41;1.60;;;1.50;;
7233;SDS011;3658;47.992;10.158;2022-11-06T03:42:13;1.47;;;1.37;;
7233;SDS011;3658;47.992;10.158;2022-11-06T03:44:47;2.10;;;1.90;;
7233;SDS011;3658;47.992;10.158;2022-11-06T03:47:19;1.57;;;1.47;;
7233;SDS011;3658;47.992;10.158;2022-11-06T03:49:49;1.90;;;1.53;;
7233;SDS011;3658;47.992;10.158;2022-11-06T03:52:23;1.43;;;1.33;;
7233;SDS011;3658;47.992;10.158;2022-11-06T03:54:55;1.40;;;1.30;;
7233;SDS011;3658;47.992;10.158;2022-11-06T03:57:26;1.50;;;1.40;;
7233;SDS011;3658;47.992;10.158;2022-11-06T04:00:01;1.70;;;1.60;;
7233;SDS011;3658;47.992;10.158;2022-11-06T04:02:32;1.40;;;1.30;;
7233;SDS011;3658;47.992;10.158;2022-11-06T04:05:04;1.50;;;1.40;;
7233;SDS011;3658;47.992;10.158;2022-11-06T04:07:35;1.30;;;1.20;;
7233;SDS011;3658;47.992;10.158;2022-11-06T04:10:08;1.50;;;1.40;;
7233;SDS011;3658;47.992;10.158;2022-11-06T04:12:54;1.40;;;1.30;;
7233;SDS011;3658;47.992;10.158;2022-11-06T04:15:43;1.50;;;1.40;;
7233;SDS011;3658;47.992;10.158;2022-11-06T04:18:16;1.60;;;1.50;;
7233;SDS011;3658;47.992;10.158;2022-11-06T04:20:47;1.43;;;1.33;;
7233;SDS011;3658;47.992;10.158;2022-11-06T04:23:40;1.60;;;1.50;;
7233;SDS011;3658;47.992;10.158;2022-11-06T04:26:36;1.43;;;1.33;;
7233;SDS011;3658;47.992;10.158;2022-11-06T04:29:12;1.53;;;1.43;;
7233;SDS011;3658;47.992;10.158;2022-11-06T04:31:54;1.70;;;1.60;;
7233;SDS011;3658;47.992;10.158;2022-11-06T04:34:28;1.40;;;1.30;;
7233;SDS011;3658;47.992;10.158;2022-11-06T04:37:04;1.37;;;1.27;;
7233;SDS011;3658;47.992;10.158;2022-11-06T04:39:35;1.40;;;1.30;;
7233;SDS011;3658;47.992;10.158;2022-11-06T04:42:10;1.20;;;1.20;;
7233;SDS011;3658;47.992;10.158;2022-11-06T04:44:48;1.30;;;1.20;;
7233;SDS011;3658;47.992;10.158;2022-11-06T04:47:20;1.37;;;1.27;;
7233;SDS011;3658;47.992;10.158;2022-11-06T04:49:49;1.60;;;1.50;;
7233;SDS011;3658;47.992;10.158;2022-11-06T04:52:22;1.70;;;1.60;;
7233;SDS011;3658;47.992;10.158;2022-11-06T04:54:51;2.70;;;1.43;;
7233;SDS011;3658;47.992;10.158;2022-11-06T04:57:20;1.50;;;1.40;;
7233;SDS011;3658;47.992;10.158;2022-11-06T04:59:48;2.77;;;1.30;;
7233;SDS011;3658;47.992;10.158;2022-11-06T05:02:15;1.20;;;1.10;;
7233;SDS011;3658;47.992;10.158;2022-11-06T05:04:43;1.23;;;1.13;;
7233;SDS011;3658;47.992;10.158;2022-11-06T05:07:11;1.50;;;1.40;;
7233;SDS011;3658;47.992;10.158;2022-11-06T05:09:39;1.30;;;1.20;;
7233;SDS011;3658;47.992;10.158;2022-11-06T05:12:06;1.30;;;1.20;;
7233;SDS011;3658;47.992;10.158;2022-11-06T05:14:32;1.40;;;1.30;;
7233;SDS011;3658;47.992;10.158;2022-11-06T05:16:59;1.40;;;1.30;;
7233;SDS011;3658;47.992;10.158;2022-11-06T05:19:26;2.90;;;1.40;;
7233;SDS011;3658;47.992;10.158;2022-11-06T05:21:55;1.27;;;1.17;;
7233;SDS011;3658;47.992;10.158;2022-11-06T05:24:39;1.07;;;1.07;;
7233;SDS011;3658;47.992;10.158;2022-11-06T05:27:06;1.30;;;1.20;;
7233;SDS011;3658;47.992;10.158;2022-11-06T05:29:33;1.30;;;1.20;;
7233;SDS011;3658;47.992;10.158;2022-11-06T05:32:00;1.30;;;1.20;;
7233;SDS011;3658;47.992;10.158;2022-11-06T05:34:26;1.40;;;1.30;;
7233;SDS011;3658;47.992;10.158;2022-11-06T05:36:55;1.20;;;1.10;;
7233;SDS011;3658;47.992;10.158;2022-11-06T05:39:22;1.40;;;1.30;;
7233;SDS011;3658;47.992;10.158;2022-11-06T05:41:49;1.33;;;1.23;;
7233;SDS011;3658;47.992;10.158;2022-11-06T05:44:16;1.40;;;1.30;;
7233;SDS011;3658;47.992;10.158;2022-11-06T05:46:43;1.30;;;1.20;;
7233;SDS011;3658;47.992;10.158;2022-11-06T05:49:10;1.30;;;1.20;;
7233;SDS011;3658;47.992;10.158;2022-11-06T05:51:37;1.10;;;1.10;;
7233;SDS011;3658;47.992;10.158;2022-11-06T05:54:05;1.50;;;1.40;;
7233;SDS011;3658;47.992;10.158;2022-11-06T05:56:32;1.10;;;1.10;;
7233;SDS011;3658;47.992;10.158;2022-11-06T05:58:59;1.30;;;1.20;;
7233;SDS011;3658;47.992;10.158;2022-11-06T06:01:26;1.30;;;1.20;;
7233;SDS011;3658;47.992;10.158;2022-11-06T06:03:53;1.20;;;1.10;;
7233;SDS011;3658;47.992;10.158;2022-11-06T06:06:19;1.30;;;1.20;;
7233;SDS011;3658;47.992;10.158;2022-11-06T06:08:46;1.30;;;1.20;;
7233;SDS011;3658;47.992;10.158;2022-11-06T06:11:15;1.33;;;1.23;;
7233;SDS011;3658;47.992;10.158;2022-11-06T06:13:41;1.20;;;1.10;;
7233;SDS011;3658;47.992;10.158;2022-11-06T06:16:08;1.30;;;1.20;;
7233;SDS011;3658;47.992;10.158;2022-11-06T06:18:35;1.10;;;1.00;;
7233;SDS011;3658;47.992;10.158;2022-11-06T06:21:02;1.17;;;1.17;;
7233;SDS011;3658;47.992;10.158;2022-11-06T06:23:29;1.17;;;1.13;;
7233;SDS011;3658;47.992;10.158;2022-11-06T06:25:57;1.00;;;1.00;;
7233;SDS011;3658;47.992;10.158;2022-11-06T06:28:25;1.30;;;1.20;;
7233;SDS011;3658;47.992;10.158;2022-11-06T06:30:52;1.30;;;1.20;;
7233;SDS011;3658;47.992;10.158;2022-11-06T06:33:19;1.27;;;1.17;;
7233;SDS011;3658;47.992;10.158;2022-11-06T06:35:46;1.30;;;1.20;;
7233;SDS011;3658;47.992;10.158;2022-11-06T06:38:13;1.23;;;1.13;;
7233;SDS011;3658;47.992;10.158;2022-11-06T06:40:40;1.10;;;1.10;;
7233;SDS011;3658;47.992;10.158;2022-11-06T06:43:07;1.17;;;1.10;;
7233;SDS011;3658;47.992;10.158;2022-11-06T06:45:35;1.30;;;1.20;;
7233;SDS011;3658;47.992;10.158;2022-11-06T06:48:02;1.50;;;1.40;;
7233;SDS011;3658;47.992;10.158;2022-11-06T06:50:29;1.30;;;1.20;;
7233;SDS011;3658;47.992;10.158;2022-11-06T06:52:56;1.47;;;1.37;;
7233;SDS011;3658;47.992;10.158;2022-11-06T06:55:24;1.40;;;1.30;;
7233;SDS011;3658;47.992;10.158;2022-11-06T06:57:55;1.43;;;1.33;;
7233;SDS011;3658;47.992;10.158;2022-11-06T07:00:22;1.30;;;1.20;;
7233;SDS011;3658;47.992;10.158;2022-11-06T07:02:51;1.30;;;1.20;;
7233;SDS011;3658;47.992;10.158;2022-11-06T07:05:18;1.87;;;1.67;;
7233;SDS011;3658;47.992;10.158;2022-11-06T07:07:45;2.03;;;1.70;;
7233;SDS011;3658;47.992;10.158;2022-11-06T07:10:12;2.00;;;1.80;;
7233;SDS011;3658;47.992;10.158;2022-11-06T07:12:39;3.10;;;2.33;;
7233;SDS011;3658;47.992;10.158;2022-11-06T07:15:06;3.63;;;2.40;;
7233;SDS011;3658;47.992;10.158;2022-11-06T07:17:34;3.33;;;2.70;;
7233;SDS011;3658;47.992;10.158;2022-11-06T07:20:02;3.13;;;2.63;;
7233;SDS011;3658;47.992;10.158;2022-11-06T07:22:30;3.30;;;2.80;;
7233;SDS011;3658;47.992;10.158;2022-11-06T07:24:57;4.10;;;3.13;;
7233;SDS011;3658;47.992;10.158;2022-11-06T07:27:24;5.43;;;2.83;;
7233;SDS011;3658;47.992;10.158;2022-11-06T07:29:53;3.73;;;2.77;;
7233;SDS011;3658;47.992;10.158;2022-11-06T07:32:20;5.00;;;3.47;;
7233;SDS011;3658;47.992;10.158;2022-11-06T07:34:47;3.10;;;2.80;;
7233;SDS011;3658;47.992;10.158;2022-11-06T07:37:15;3.50;;;3.17;;
7233;SDS011;3658;47.992;10.158;2022-11-06T07:39:42;3.37;;;3.00;;
7233;SDS011;3658;47.992;10.158;2022-11-06T07:42:09;4.07;;;3.17;;
7233;SDS011;3658;47.992;10.158;2022-11-06T07:44:36;3.03;;;2.70;;
7233;SDS011;3658;47.992;10.158;2022-11-06T07:47:03;4.03;;;3.13;;
7233;SDS011;3658;47.992;10.158;2022-11-06T07:49:30;3.67;;;2.80;;
7233;SDS011;3658;47.992;10.158;2022-11-06T07:51:57;4.30;;;2.63;;
7233;SDS011;3658;47.992;10.158;2022-11-06T07:54:25;3.03;;;2.50;;
7233;SDS011;3658;47.992;10.158;2022-11-06T07:56:52;4.20;;;2.70;;
7233;SDS011;3658;47.992;10.158;2022-11-06T07:59:19;3.20;;;2.90;;
7233;SDS011;3658;47.992;10.158;2022-11-06T08:01:46;3.57;;;2.83;;
7233;SDS011;3658;47.992;10.158;2022-11-06T08:04:13;2.93;;;2.63;;
7233;SDS011;3658;47.992;10.158;2022-11-06T08:06:40;2.57;;;2.37;;
7233;SDS011;3658;47.992;10.158;2022-11-06T08:09:07;2.50;;;2.30;;
7233;SDS011;3658;47.992;10.158;2022-11-06T08:11:35;2.83;;;2.40;;
7233;SDS011;3658;47.992;10.158;2022-11-06T08:14:02;2.87;;;2.47;;
7233;SDS011;3658;47.992;10.158;2022-11-06T08:16:29;3.30;;;2.50;;
7233;SDS011;3658;47.992;10.158;2022-11-06T08:18:57;2.57;;;2.10;;
7233;SDS011;3658;47.992;10.158;2022-11-06T08:21:24;2.23;;;2.03;;
7233;SDS011;3658;47.992;10.158;2022-11-06T08:23:51;2.87;;;1.97;;
7233;SDS011;3658;47.992;10.158;2022-11-06T08:26:18;4.17;;;2.07;;
7233;SDS011;3658;47.992;10.158;2022-11-06T08:28:46;2.50;;;1.93;;
7233;SDS011;3658;47.992;10.158;2022-11-06T08:31:13;2.00;;;1.80;;
7233;SDS011;3658;47.992;10.158;2022-11-06T08:33:40;2.37;;;1.83;;
7233;SDS011;3658;47.992;10.158;2022-11-06T08:36:07;2.77;;;1.80;;
7233;SDS011;3658;47.992;10.158;2022-11-06T08:38:35;2.50;;;1.80;;
7233;SDS011;3658;47.992;10.158;2022-11-06T08:41:05;4.47;;;1.87;;
7233;SDS011;3658;47.992;10.158;2022-11-06T08:43:33;3.47;;;1.77;;
7233;SDS011;3658;47.992;10.158;2022-11-06T08:46:02;2.23;;;1.93;;
7233;SDS011;3658;47.992;10.158;2022-11-06T08:48:30;2.13;;;1.93;;
7233;SDS011;3658;47.992;10.158;2022-11-06T08:50:57;2.07;;;1.70;;
7233;SDS011;3658;47.992;10.158;2022-11-06T08:53:24;1.97;;;1.77;;
7233;SDS011;3658;47.992;10.158;2022-11-06T08:55:51;1.90;;;1.70;;
7233;SDS011;3658;47.992;10.158;2022-11-06T08:58:18;2.47;;;1.80;;
7233;SDS011;3658;47.992;10.158;2022-11-06T09:00:45;1.93;;;1.73;;
7233;SDS011;3658;47.992;10.158;2022-11-06T09:03:14;2.37;;;1.70;;
7233;SDS011;3658;47.992;10.158;2022-11-06T09:05:42;1.70;;;1.60;;
7233;SDS011;3658;47.992;10.158;2022-11-06T09:08:10;1.90;;;1.70;;
7233;SDS011;3658;47.992;10.158;2022-11-06T09:10:38;1.90;;;1.67;;
7233;SDS011;3658;47.992;10.158;2022-11-06T09:13:07;2.17;;;1.80;;
7233;SDS011;3658;47.992;10.158;2022-11-06T09:15:35;2.03;;;1.60;;
7233;SDS011;3658;47.992;10.158;2022-11-06T09:18:02;2.13;;;1.90;;
7233;SDS011;3658;47.992;10.158;2022-11-06T09:20:31;2.10;;;1.90;;
7233;SDS011;3658;47.992;10.158;2022-11-06T09:22:59;1.57;;;1.47;;
7233;SDS011;3658;47.992;10.158;2022-11-06T09:25:27;2.00;;;1.70;;
7233;SDS011;3658;47.992;10.158;2022-11-06T09:27:54;2.37;;;1.60;;
7233;SDS011;3658;47.992;10.158;2022-11-06T09:30:21;2.23;;;1.70;;
7233;SDS011;3658;47.992;10.158;2022-11-06T09:32:50;2.10;;;1.90;;
7233;SDS011;3658;47.992;10.158;2022-11-06T09:35:19;3.60;;;2.00;;
7233;SDS011;3658;47.992;10.158;2022-11-06T09:37:48;1.90;;;1.77;;
7233;SDS011;3658;47.992;10.158;2022-11-06T09:40:19;1.87;;;1.73;;
7233;SDS011;3658;47.992;10.158;2022-11-06T09:42:50;2.67;;;1.77;;
7233;SDS011;3658;47.992;10.158;2022-11-06T09:45:23;1.90;;;1.70;;
7233;SDS011;3658;47.992;10.158;2022-11-06T09:47:55;1.70;;;1.57;;
7233;SDS011;3658;47.992;10.158;2022-11-06T09:50:27;2.17;;;1.90;;
7233;SDS011;3658;47.992;10.158;2022-11-06T09:52:58;3.00;;;1.63;;
7233;SDS011;3658;47.992;10.158;2022-11-06T09:55:32;1.50;;;1.40;;
7233;SDS011;3658;47.992;10.158;2022-11-06T09:58:04;1.70;;;1.60;;
7233;SDS011;3658;47.992;10.158;2022-11-06T10:00:38;1.60;;;1.50;;
7233;SDS011;3658;47.992;10.158;2022-11-06T10:03:05;3.87;;;1.80;;
7233;SDS011;3658;47.992;10.158;2022-11-06T10:05:40;2.23;;;2.00;;
7233;SDS011;3658;47.992;10.158;2022-11-06T10:08:11;1.70;;;1.60;;
7233;SDS011;3658;47.992;10.158;2022-11-06T10:10:44;2.27;;;2.00;;
7233;SDS011;3658;47.992;10.158;2022-11-06T10:13:25;1.70;;;1.50;;
7233;SDS011;3658;47.992;10.158;2022-11-06T10:16:08;2.17;;;1.90;;
7233;SDS011;3658;47.992;10.158;2022-11-06T10:18:44;2.23;;;2.03;;
7233;SDS011;3658;47.992;10.158;2022-11-06T10:21:20;2.20;;;2.00;;
7233;SDS011;3658;47.992;10.158;2022-11-06T10:23:51;2.00;;;1.80;;
7233;SDS011;3658;47.992;10.158;2022-11-06T10:26:24;2.27;;;2.07;;
7233;SDS011;3658;47.992;10.158;2022-11-06T10:31:55;2.10;;;1.90;;
7233;SDS011;3658;47.992;10.158;2022-11-06T10:34:32;2.10;;;1.90;;
7233;SDS011;3658;47.992;10.158;2022-11-06T10:37:04;2.60;;;1.60;;
7233;SDS011;3658;47.992;10.158;2022-11-06T10:39:37;2.10;;;1.87;;
7233;SDS011;3658;47.992;10.158;2022-11-06T10:42:06;2.10;;;1.87;;
7233;SDS011;3658;47.992;10.158;2022-11-06T10:44:40;2.03;;;1.83;;
7233;SDS011;3658;47.992;10.158;2022-11-06T10:47:13;2.17;;;1.97;;
7233;SDS011;3658;47.992;10.158;2022-11-06T10:49:44;2.37;;;2.10;;
7233;SDS011;3658;47.992;10.158;2022-11-06T10:52:29;2.17;;;1.80;;
7233;SDS011;3658;47.992;10.158;2022-11-06T10:55:17;4.43;;;1.90;;
7233;SDS011;3658;47.992;10.158;2022-11-06T10:58:11;2.03;;;1.70;;
7233;SDS011;3658;47.992;10.158;2022-11-06T11:00:41;2.80;;;2.00;;
7233;SDS011;3658;47.992;10.158;2022-11-06T11:03:14;3.63;;;1.90;;
7233;SDS011;3658;47.992;10.158;2022-11-06T11:05:47;2.10;;;1.90;;
7233;SDS011;3658;47.992;10.158;2022-11-06T11:11:06;2.00;;;1.80;;
7233;SDS011;3658;47.992;10.158;2022-11-06T11:13:43;4.03;;;2.67;;
7233;SDS011;3658;47.992;10.158;2022-11-06T11:16:12;2.37;;;2.17;;
7233;SDS011;3658;47.992;10.158;2022-11-06T11:18:42;2.73;;;2.50;;
7233;SDS011;3658;47.992;10.158;2022-11-06T11:21:19;2.73;;;2.53;;
7233;SDS011;3658;47.992;10.158;2022-11-06T11:26:43;2.47;;;2.27;;
7233;SDS011;3658;47.992;10.158;2022-11-06T11:29:13;3.13;;;2.10;;
7233;SDS011;3658;47.992;10.158;2022-11-06T11:31:44;5.60;;;2.10;;
7233;SDS011;3658;47.992;10.158;2022-11-06T11:34:15;2.93;;;2.03;;
7233;SDS011;3658;47.992;10.158;2022-11-06T11:36:49;1.80;;;1.70;;
7233;SDS011;3658;47.992;10.158;2022-11-06T11:39:22;3.67;;;2.00;;
7233;SDS011;3658;47.992;10.158;2022-11-06T11:41:54;1.80;;;1.70;;
7233;SDS011;3658;47.992;10.158;2022-11-06T11:44:42;1.90;;;1.53;;
7233;SDS011;3658;47.992;10.158;2022-11-06T11:47:18;2.10;;;1.90;;
7233;SDS011;3658;47.992;10.158;2022-11-06T11:49:46;2.10;;;1.90;;
7233;SDS011;3658;47.992;10.158;2022-11-06T11:52:15;2.03;;;1.80;;
7233;SDS011;3658;47.992;10.158;2022-11-06T11:54:46;2.93;;;1.90;;
7233;SDS011;3658;47.992;10.158;2022-11-06T11:57:18;2.37;;;1.90;;
7233;SDS011;3658;47.992;10.158;2022-11-06T11:59:47;1.90;;;1.80;;
7233;SDS011;3658;47.992;10.158;2022-11-06T12:02:19;1.80;;;1.70;;
7233;SDS011;3658;47.992;10.158;2022-11-06T12:04:49;3.20;;;1.80;;
7233;SDS011;3658;47.992;10.158;2022-11-06T12:07:21;2.30;;;2.10;;
7233;SDS011;3658;47.992;10.158;2022-11-06T12:09:50;1.80;;;1.70;;
7233;SDS011;3658;47.992;10.158;2022-11-06T12:12:20;1.97;;;1.87;;
7233;SDS011;3658;47.992;10.158;2022-11-06T12:15:02;2.10;;;1.90;;
7233;SDS011;3658;47.992;10.158;2022-11-06T12:17:32;2.03;;;1.83;;
7233;SDS011;3658;47.992;10.158;2022-11-06T12:20:04;2.50;;;2.00;;
7233;SDS011;3658;47.992;10.158;2022-11-06T12:22:39;2.33;;;2.13;;
7233;SDS011;3658;47.992;10.158;2022-11-06T12:25:09;2.43;;;2.00;;
7233;SDS011;3658;47.992;10.158;2022-11-06T12:27:43;1.83;;;1.73;;
7233;SDS011;3658;47.992;10.158;2022-11-06T12:30:13;2.50;;;1.80;;
7233;SDS011;3658;47.992;10.158;2022-11-06T12:32:44;3.57;;;1.70;;
7233;SDS011;3658;47.992;10.158;2022-11-06T12:35:21;2.80;;;1.80;;
7233;SDS011;3658;47.992;10.158;2022-11-06T12:38:09;2.10;;;1.90;;
7233;SDS011;3658;47.992;10.158;2022-11-06T12:40:40;2.17;;;1.80;;
7233;SDS011;3658;47.992;10.158;2022-11-06T12:43:15;2.40;;;2.20;;
7233;SDS011;3658;47.992;10.158;2022-11-06T12:45:56;2.63;;;2.10;;
7233;SDS011;3658;47.992;10.158;2022-11-06T12:48:42;1.80;;;1.70;;
7233;SDS011;3658;47.992;10.158;2022-11-06T12:51:31;1.83;;;1.70;;
7233;SDS011;3658;47.992;10.158;2022-11-06T12:54:11;2.27;;;1.90;;
7233;SDS011;3658;47.992;10.158;2022-11-06T12:56:51;1.83;;;1.73;;
7233;SDS011;3658;47.992;10.158;2022-11-06T12:59:31;1.97;;;1.80;;
7233;SDS011;3658;47.992;10.158;2022-11-06T13:02:14;1.83;;;1.63;;
7233;SDS011;3658;47.992;10.158;2022-11-06T13:04:51;1.90;;;1.80;;
7233;SDS011;3658;47.992;10.158;2022-11-06T13:07:33;2.90;;;2.00;;
7233;SDS011;3658;47.992;10.158;2022-11-06T13:10:20;2.33;;;1.90;;
7233;SDS011;3658;47.992;10.158;2022-11-06T13:12:57;2.03;;;1.93;;
7233;SDS011;3658;47.992;10.158;2022-11-06T13:15:39;6.00;;;1.93;;
7233;SDS011;3658;47.992;10.158;2022-11-06T13:18:13;2.07;;;1.93;;
7233;SDS011;3658;47.992;10.158;2022-11-06T13:20:48;2.37;;;2.03;;
7233;SDS011;3658;47.992;10.158;2022-11-06T13:23:23;2.90;;;2.07;;
7233;SDS011;3658;47.992;10.158;2022-11-06T13:25:55;2.67;;;1.90;;
7233;SDS011;3658;47.992;10.158;2022-11-06T13:28:28;1.53;;;1.43;;
7233;SDS011;3658;47.992;10.158;2022-11-06T13:31:02;3.10;;;1.70;;
7233;SDS011;3658;47.992;10.158;2022-11-06T13:33:33;3.00;;;1.73;;
7233;SDS011;3658;47.992;10.158;2022-11-06T13:36:04;1.73;;;1.60;;
7233;SDS011;3658;47.992;10.158;2022-11-06T13:38:33;1.80;;;1.70;;
7233;SDS011;3658;47.992;10.158;2022-11-06T13:41:04;2.10;;;1.73;;
7233;SDS011;3658;47.992;10.158;2022-11-06T13:43:38;6.60;;;2.07;;
7233;SDS011;3658;47.992;10.158;2022-11-06T13:46:13;2.70;;;2.27;;
7233;SDS011;3658;47.992;10.158;2022-11-06T13:48:48;3.77;;;1.77;;
7233;SDS011;3658;47.992;10.158;2022-11-06T13:51:22;1.83;;;1.73;;
7233;SDS011;3658;47.992;10.158;2022-11-06T13:53:59;1.97;;;1.77;;
7233;SDS011;3658;47.992;10.158;2022-11-06T13:56:38;2.83;;;1.90;;
7233;SDS011;3658;47.992;10.158;2022-11-06T13:59:23;1.60;;;1.50;;
7233;SDS011;3658;47.992;10.158;2022-11-06T14:02:18;2.00;;;1.87;;
7233;SDS011;3658;47.992;10.158;2022-11-06T14:07:56;4.87;;;2.07;;
7233;SDS011;3658;47.992;10.158;2022-11-06T14:10:26;1.80;;;1.70;;
7233;SDS011;3658;47.992;10.158;2022-11-06T14:12:58;1.93;;;1.70;;
7233;SDS011;3658;47.992;10.158;2022-11-06T14:15:29;5.07;;;1.83;;
7233;SDS011;3658;47.992;10.158;2022-11-06T14:18:01;2.70;;;1.80;;
7233;SDS011;3658;47.992;10.158;2022-11-06T14:20:30;1.80;;;1.70;;
7233;SDS011;3658;47.992;10.158;2022-11-06T14:26:34;2.10;;;1.90;;
7233;SDS011;3658;47.992;10.158;2022-11-06T14:32:35;1.60;;;1.50;;
7233;SDS011;3658;47.992;10.158;2022-11-06T14:38:18;2.47;;;1.70;;
7233;SDS011;3658;47.992;10.158;2022-11-06T14:41:03;1.80;;;1.70;;
7233;SDS011;3658;47.992;10.158;2022-11-06T14:44:19;4.53;;;1.80;;
7233;SDS011;3658;47.992;10.158;2022-11-06T14:46:57;3.53;;;1.80;;
7233;SDS011;3658;47.992;10.158;2022-11-06T14:52:13;2.27;;;1.60;;
7233;SDS011;3658;47.992;10.158;2022-11-06T14:54:47;2.33;;;1.60;;
7233;SDS011;3658;47.992;10.158;2022-11-06T14:57:31;2.97;;;1.87;;
7233;SDS011;3658;47.992;10.158;2022-11-06T15:00:00;3.60;;;1.80;;
7233;SDS011;3658;47.992;10.158;2022-11-06T15:02:28;3.53;;;1.87;;
7233;SDS011;3658;47.992;10.158;2022-11-06T15:04:59;1.77;;;1.60;;
7233;SDS011;3658;47.992;10.158;2022-11-06T15:07:34;3.53;;;1.77;;
7233;SDS011;3658;47.992;10.158;2022-11-06T15:13:22;4.80;;;1.73;;
7233;SDS011;3658;47.992;10.158;2022-11-06T15:15:51;2.67;;;1.50;;
7233;SDS011;3658;47.992;10.158;2022-11-06T15:18:23;1.70;;;1.60;;
7233;SDS011;3658;47.992;10.158;2022-11-06T15:20:52;2.90;;;1.60;;
7233;SDS011;3658;47.992;10.158;2022-11-06T15:23:22;1.97;;;1.77;;
7233;SDS011;3658;47.992;10.158;2022-11-06T15:25:59;3.77;;;1.73;;
7233;SDS011;3658;47.992;10.158;2022-11-06T15:28:32;1.70;;;1.60;;
7233;SDS011;3658;47.992;10.158;2022-11-06T15:31:06;2.00;;;1.90;;
7233;SDS011;3658;47.992;10.158;2022-11-06T15:33:44;3.90;;;1.80;;
7233;SDS011;3658;47.992;10.158;2022-11-06T15:36:24;3.80;;;2.03;;
7233;SDS011;3658;47.992;10.158;2022-11-06T15:38:54;3.80;;;1.90;;
7233;SDS011;3658;47.992;10.158;2022-11-06T15:41:22;2.37;;;1.80;;
7233;SDS011;3658;47.992;10.158;2022-11-06T15:43:50;3.60;;;1.70;;
7233;SDS011;3658;47.992;10.158;2022-11-06T15:46:21;4.20;;;1.60;;
7233;SDS011;3658;47.992;10.158;2022-11-06T15:49:04;3.17;;;2.27;;
7233;SDS011;3658;47.992;10.158;2022-11-06T15:51:35;2.97;;;2.17;;
7233;SDS011;3658;47.992;10.158;2022-11-06T15:54:05;2.03;;;1.83;;
7233;SDS011;3658;47.992;10.158;2022-11-06T15:56:38;3.03;;;1.70;;